Aérodrome :
LOGIN :

S'inscrire | Disclaimer

   EN    FR    IT 

 










Légende :    VFR   VFR Marginal   IFR   IFR Intensif   IFR Très Intensif
Visi : 
Plafond : 
>= 8 km
>= 3000ft
5 à 8 km
1000 à 3000 ft
1500m à 5 km
500 à 1000 ft
800 à 1500m
200 à 500 ft
< 800m
< 200 ft
Symboles :   Orages  Brouillard  Fortes neiges  Fortes précipitations  Vent > 20 kt
SIGMETs :   Divers  Orages  Givrage  Turbulence  Onde Orograph.  Cendres Volcan.






- Altitude de l'aérodrome : 13 ft
- Code IATA : GOA


LIMJ - Genoa Cristoforo Colombo

DERNIER METAR :
  • 190920Z 15012KT 9999 FEW015 BKN028 20/17 Q1015

METARs EXPIRÉS :
  • 190850Z 16011KT 9999 -RA FEW015 BKN026 20/17 Q1015
  • 190820Z 16009KT 9999 -RA FEW015 BKN026 20/17 Q1015
  • 190750Z 16012KT 9999 -RA SCT015 BKN026 20/17 Q1015
  • 190720Z 15016KT 9000 -RA FEW010 SCT015 BKN026 20/17 Q1014
  • 190650Z 11011KT 9000 -RA FEW010 SCT015 BKN026 18/17 Q1014 RERA

TAF TAF LIMJ
Valide du 19 à 06h jusqu'au 20 à 06h UTC


190500Z 1906/2006 15015KT 9999 RA SCT015 BKN040
TEMPO 1910/21918 4000 TSRA



MET'MAP, la Météo Aéronautique d'un coup d'oeil ! - Copyright ORBIFLY Décembre 2007 - Disclaimer

ORBIFLY MET'MAP TEAM :

Programmation & Développement : Alexandra Zaïnal
Conception & Développement : Baudouin d'Aumeries
Co-Programmation & Développement : Marc-Olivier Méhu
Soutien technique & logistique : Manuel Goepfert

Contact : metmap@orbifly.com




SOURCES & CREDITS :

   NOAA